createdAt,value
2022-08-25T00:00:05.746Z,2.00
2022-08-25T00:03:08.388Z,1.90
2022-08-25T00:06:11.238Z,2.00
2022-08-25T00:09:15.754Z,1.90
2022-08-25T00:12:17.523Z,1.88
2022-08-25T00:15:19.429Z,1.73
2022-08-25T00:18:21.339Z,2.00
2022-08-25T00:21:25.390Z,1.88
2022-08-25T00:24:27.769Z,1.90
2022-08-25T00:27:29.433Z,1.90
2022-08-25T00:30:31.238Z,1.92
2022-08-25T00:33:33.921Z,1.85
2022-08-25T00:36:37.020Z,1.73
2022-08-25T00:39:40.060Z,1.80
2022-08-25T00:42:41.874Z,2.00
2022-08-25T00:45:43.685Z,1.95
2022-08-25T00:48:50.773Z,2.00
2022-08-25T00:52:06.225Z,2.00
2022-08-25T00:55:15.138Z,1.90
2022-08-25T00:58:22.034Z,1.73
2022-08-25T01:01:24.043Z,1.58
2022-08-25T01:04:26.798Z,1.90
2022-08-25T01:07:28.735Z,1.80
2022-08-25T01:10:31.465Z,1.75
2022-08-25T01:13:45.627Z,1.90
2022-08-25T01:16:53.582Z,1.80
2022-08-25T01:19:56.025Z,2.00
2022-08-25T01:22:58.213Z,1.80
2022-08-25T01:26:13.492Z,1.92
2022-08-25T01:29:21.458Z,1.63
2022-08-25T01:32:23.995Z,1.90
2022-08-25T01:35:25.795Z,1.75
2022-08-25T01:38:27.981Z,1.75
2022-08-25T01:41:29.635Z,1.80
2022-08-25T01:44:35.943Z,1.85
2022-08-25T01:47:38.808Z,1.90
2022-08-25T01:50:41.979Z,1.80
2022-08-25T01:54:10.748Z,1.70
2022-08-25T01:57:12.691Z,1.80
2022-08-25T02:00:16.074Z,1.90
2022-08-25T02:03:21.429Z,1.90
2022-08-25T02:06:29.987Z,1.73
2022-08-25T02:09:33.018Z,1.80
2022-08-25T02:12:36.834Z,1.80
2022-08-25T02:15:48.291Z,1.80
2022-08-25T02:18:50.154Z,1.70
2022-08-25T02:21:52.048Z,1.73
2022-08-25T02:24:57.845Z,1.90
2022-08-25T02:28:00.151Z,1.70
2022-08-25T02:31:05.125Z,1.70
2022-08-25T02:34:08.924Z,1.80
2022-08-25T02:37:10.755Z,1.92
2022-08-25T02:40:12.862Z,1.73
2022-08-25T02:43:16.140Z,1.70
2022-08-25T02:46:20.401Z,1.70
2022-08-25T02:49:22.342Z,1.55
2022-08-25T02:52:25.346Z,1.63
2022-08-25T02:55:27.239Z,1.90
2022-08-25T02:58:29.186Z,1.80
2022-08-25T03:01:32.788Z,2.13
2022-08-25T03:04:34.730Z,1.83
2022-08-25T03:07:38.462Z,1.90
2022-08-25T03:10:41.720Z,1.70
2022-08-25T03:13:43.919Z,1.67
2022-08-25T03:16:46.375Z,2.10
2022-08-25T03:19:48.511Z,1.67
2022-08-25T03:22:50.573Z,1.73
2022-08-25T03:26:13.634Z,1.60
2022-08-25T03:29:15.573Z,1.60
2022-08-25T03:32:17.504Z,1.90
2022-08-25T03:35:20.032Z,1.88
2022-08-25T03:38:23.672Z,1.85
2022-08-25T03:41:29.185Z,1.80
2022-08-25T03:44:31.166Z,1.85
2022-08-25T03:47:32.960Z,1.98
2022-08-25T03:50:34.837Z,1.80
2022-08-25T03:53:36.689Z,1.80
2022-08-25T03:56:38.458Z,2.15
2022-08-25T03:59:40.508Z,2.03
2022-08-25T04:06:04.984Z,2.03
2022-08-25T04:09:07.858Z,1.90
2022-08-25T04:16:21.025Z,2.10
2022-08-25T04:19:29.075Z,1.92
2022-08-25T04:22:32.003Z,2.05
2022-08-25T04:25:44.208Z,2.22
2022-08-25T04:28:49.719Z,2.03
2022-08-25T04:31:53.477Z,1.92
2022-08-25T04:34:55.569Z,1.80
2022-08-25T04:37:57.367Z,1.75
2022-08-25T04:41:01.846Z,2.00
2022-08-25T04:44:04.308Z,2.00
2022-08-25T04:47:06.351Z,2.00
2022-08-25T04:50:08.803Z,2.08
2022-08-25T04:53:12.052Z,2.15
2022-08-25T04:56:16.130Z,1.90
2022-08-25T04:59:18.943Z,2.30
2022-08-25T05:02:21.094Z,2.20
2022-08-25T05:05:23.278Z,1.83
2022-08-25T05:08:25.717Z,2.20
2022-08-25T05:11:27.770Z,1.80
2022-08-25T05:14:29.707Z,1.90
2022-08-25T05:17:31.643Z,1.80
2022-08-25T05:20:37.577Z,1.90
2022-08-25T05:26:41.900Z,1.85
2022-08-25T05:29:43.695Z,1.90
2022-08-25T05:32:45.526Z,1.75
2022-08-25T05:35:47.478Z,1.92
2022-08-25T05:38:49.579Z,2.03
2022-08-25T05:41:51.381Z,1.98
2022-08-25T05:44:53.261Z,2.05
2022-08-25T05:47:55.467Z,2.17
2022-08-25T05:51:00.108Z,2.20
2022-08-25T05:54:02.336Z,2.10
2022-08-25T05:57:04.292Z,1.75
2022-08-25T06:00:07.148Z,1.70
2022-08-25T06:03:14.622Z,2.10
2022-08-25T06:06:17.133Z,2.13
2022-08-25T06:09:18.811Z,2.17
2022-08-25T06:12:21.861Z,2.17
2022-08-25T06:15:25.299Z,2.20
2022-08-25T06:18:27.744Z,2.25
2022-08-25T06:21:29.867Z,1.73
2022-08-25T06:24:31.803Z,2.13
2022-08-25T06:27:34.591Z,2.20
2022-08-25T06:30:39.692Z,1.95
2022-08-25T06:33:41.779Z,2.22
2022-08-25T06:36:43.595Z,2.00
2022-08-25T06:39:51.460Z,2.10
2022-08-25T06:42:53.394Z,2.08
2022-08-25T06:45:55.663Z,1.98
2022-08-25T06:48:59.358Z,2.30
2022-08-25T06:52:02.236Z,2.10
2022-08-25T06:55:07.636Z,2.53
2022-08-25T06:58:10.187Z,2.20
2022-08-25T07:01:20.521Z,2.30
2022-08-25T07:04:23.326Z,2.38
2022-08-25T07:07:28.039Z,2.42
2022-08-25T07:10:48.135Z,2.25
2022-08-25T07:13:50.605Z,2.40
2022-08-25T07:16:53.169Z,2.47
2022-08-25T07:19:57.454Z,3.00
2022-08-25T07:22:59.651Z,3.83
2022-08-25T07:29:42.196Z,3.80
2022-08-25T07:32:45.138Z,3.35
2022-08-25T07:35:46.872Z,3.50
2022-08-25T07:38:50.109Z,3.90
2022-08-25T07:41:53.214Z,3.50
2022-08-25T07:44:55.099Z,3.35
2022-08-25T07:48:02.051Z,3.50
2022-08-25T07:51:10.065Z,2.97
2022-08-25T07:54:12.499Z,3.25
2022-08-25T07:57:14.372Z,2.88
2022-08-25T08:00:17.228Z,2.92
2022-08-25T08:03:35.423Z,2.92
2022-08-25T08:06:42.682Z,3.00
2022-08-25T08:09:45.646Z,2.92
2022-08-25T08:12:47.980Z,2.78
2022-08-25T08:15:53.701Z,2.72
2022-08-25T08:18:57.108Z,2.60
2022-08-25T08:22:02.310Z,2.50
2022-08-25T08:28:12.638Z,2.75
2022-08-25T08:31:19.611Z,2.35
2022-08-25T08:34:24.765Z,2.90
2022-08-25T08:37:29.826Z,2.80
2022-08-25T08:40:41.952Z,2.38
2022-08-25T08:43:45.691Z,2.42
2022-08-25T08:46:54.027Z,2.45
2022-08-25T08:50:28.589Z,2.40
2022-08-25T08:53:39.052Z,2.30
2022-08-25T08:56:45.365Z,2.45
2022-08-25T08:59:58.297Z,2.20
2022-08-25T09:03:06.986Z,2.17
2022-08-25T09:06:20.601Z,2.20
2022-08-25T09:09:29.480Z,2.38
2022-08-25T09:12:38.167Z,1.92
2022-08-25T09:16:35.566Z,2.00
2022-08-25T09:19:56.006Z,2.08
2022-08-25T09:23:14.112Z,2.13
2022-08-25T09:26:39.811Z,2.08
2022-08-25T09:30:01.127Z,2.00
2022-08-25T09:33:08.129Z,1.90
2022-08-25T09:36:10.507Z,2.00
2022-08-25T09:39:13.017Z,2.10
2022-08-25T09:42:15.505Z,2.20
2022-08-25T09:45:42.308Z,2.00
2022-08-25T09:49:02.608Z,2.05
2022-08-25T09:52:28.939Z,2.20
2022-08-25T09:55:34.297Z,2.00
2022-08-25T09:58:37.320Z,2.08
2022-08-25T10:01:49.869Z,2.17
2022-08-25T10:04:52.473Z,2.17
2022-08-25T10:07:58.894Z,2.17
2022-08-25T10:11:06.550Z,1.90
2022-08-25T10:14:35.238Z,1.95
2022-08-25T10:17:37.787Z,2.00
2022-08-25T10:20:44.786Z,2.00
2022-08-25T10:23:57.669Z,2.10
2022-08-25T10:27:34.926Z,1.75
2022-08-25T10:31:05.091Z,2.00
2022-08-25T10:34:22.319Z,1.83
2022-08-25T10:37:43.690Z,2.10
2022-08-25T10:41:03.044Z,2.10
2022-08-25T10:44:48.985Z,2.00
2022-08-25T10:48:17.099Z,2.10
2022-08-25T10:51:54.975Z,1.80
2022-08-25T10:55:34.825Z,2.17
2022-08-25T10:58:54.530Z,2.08
2022-08-25T11:02:21.677Z,1.97
2022-08-25T11:06:01.980Z,2.10
2022-08-25T11:09:09.329Z,2.20
2022-08-25T11:12:31.808Z,2.30
2022-08-25T11:16:00.156Z,2.15
2022-08-25T11:19:19.311Z,2.28
2022-08-25T11:22:39.823Z,2.03
2022-08-25T11:25:49.498Z,1.92
2022-08-25T11:28:59.308Z,2.03
2022-08-25T11:32:02.043Z,2.05
2022-08-25T11:35:08.058Z,2.10
2022-08-25T11:38:40.736Z,2.08
2022-08-25T11:41:55.610Z,2.25
2022-08-25T11:45:00.849Z,1.98
2022-08-25T11:48:27.723Z,2.22
2022-08-25T11:51:41.405Z,2.05
2022-08-25T11:54:43.867Z,2.10
2022-08-25T11:57:53.125Z,2.15
2022-08-25T12:00:57.386Z,2.15
2022-08-25T12:04:44.269Z,2.00
2022-08-25T12:07:46.951Z,2.15
2022-08-25T12:10:54.799Z,2.08
2022-08-25T12:14:28.199Z,2.13
2022-08-25T12:17:39.476Z,2.28
2022-08-25T12:20:53.669Z,2.20
2022-08-25T12:24:04.063Z,2.30
2022-08-25T12:27:09.683Z,2.00
2022-08-25T12:30:26.141Z,2.20
2022-08-25T12:34:00.527Z,2.17
2022-08-25T12:37:14.214Z,2.00
2022-08-25T12:40:27.002Z,2.17
2022-08-25T12:43:37.346Z,2.00
2022-08-25T12:46:40.708Z,2.20
2022-08-25T12:49:42.863Z,1.95
2022-08-25T12:52:45.819Z,2.20
2022-08-25T12:55:57.432Z,1.95
2022-08-25T12:59:03.231Z,2.03
2022-08-25T13:02:29.762Z,2.00
2022-08-25T13:05:54.718Z,1.95
2022-08-25T13:09:13.699Z,1.95
2022-08-25T13:12:26.893Z,2.20
2022-08-25T13:15:41.100Z,2.05
2022-08-25T13:18:46.154Z,2.10
2022-08-25T13:21:54.832Z,2.10
2022-08-25T13:28:06.724Z,1.95
2022-08-25T13:31:19.050Z,1.90
2022-08-25T13:34:24.090Z,1.92
2022-08-25T13:37:37.396Z,2.00
2022-08-25T13:40:39.337Z,1.80
2022-08-25T13:43:45.783Z,2.00
2022-08-25T13:47:28.097Z,1.80
2022-08-25T13:50:42.649Z,1.95
2022-08-25T13:53:53.160Z,1.90
2022-08-25T13:57:42.681Z,2.03
2022-08-25T14:01:47.083Z,1.92
2022-08-25T14:04:52.758Z,2.10
2022-08-25T14:08:09.124Z,1.90
2022-08-25T14:11:27.956Z,1.90
2022-08-25T14:14:36.473Z,1.70
2022-08-25T14:17:43.057Z,1.60
2022-08-25T14:20:56.750Z,1.80
2022-08-25T14:23:58.871Z,2.00
2022-08-25T14:27:02.895Z,1.77
2022-08-25T14:30:06.427Z,1.98
2022-08-25T14:33:10.306Z,1.92
2022-08-25T14:36:12.144Z,1.52
2022-08-25T14:39:21.043Z,2.00
2022-08-25T14:42:29.601Z,1.70
2022-08-25T14:45:35.399Z,1.88
2022-08-25T14:48:44.318Z,1.70
2022-08-25T14:51:46.546Z,1.90
2022-08-25T14:54:48.296Z,1.83
2022-08-25T14:57:49.991Z,2.00
2022-08-25T15:00:53.306Z,1.90
2022-08-25T15:04:01.169Z,1.88
2022-08-25T15:07:23.473Z,1.88
2022-08-25T15:10:25.558Z,1.80
2022-08-25T15:13:28.313Z,2.03
2022-08-25T15:16:45.834Z,2.00
2022-08-25T15:19:50.897Z,2.03
2022-08-25T15:22:53.373Z,1.80
2022-08-25T15:25:56.955Z,1.88
2022-08-25T15:28:59.349Z,2.40
2022-08-25T15:32:03.451Z,1.90
2022-08-25T15:35:06.987Z,1.90
2022-08-25T15:38:09.875Z,1.98
2022-08-25T15:41:13.280Z,1.88
2022-08-25T15:44:15.119Z,1.90
2022-08-25T15:47:17.055Z,1.98
2022-08-25T15:50:25.751Z,1.92
2022-08-25T15:53:29.742Z,1.88
2022-08-25T15:56:31.697Z,2.07
2022-08-25T15:59:33.585Z,2.00
2022-08-25T16:02:35.700Z,1.92
2022-08-25T16:05:39.490Z,1.95
2022-08-25T16:08:47.907Z,1.88
2022-08-25T16:11:56.235Z,1.88
2022-08-25T16:14:59.949Z,1.77
2022-08-25T16:18:04.773Z,1.85
2022-08-25T16:21:12.502Z,1.75
2022-08-25T16:24:14.480Z,1.80
2022-08-25T16:27:18.566Z,2.00
2022-08-25T16:30:21.275Z,1.80
2022-08-25T16:33:23.013Z,2.00
2022-08-25T16:36:27.161Z,2.13
2022-08-25T16:39:30.185Z,2.05
2022-08-25T16:42:32.539Z,2.10
2022-08-25T16:45:51.962Z,2.00
2022-08-25T16:48:54.021Z,2.00
2022-08-25T16:51:57.995Z,1.90
2022-08-25T16:55:16.365Z,2.05
2022-08-25T16:58:18.297Z,2.10
2022-08-25T17:01:22.650Z,2.00
2022-08-25T17:04:29.509Z,2.22
2022-08-25T17:07:34.913Z,2.17
2022-08-25T17:10:39.672Z,2.20
2022-08-25T17:16:55.250Z,1.90
2022-08-25T17:20:15.801Z,2.20
2022-08-25T17:23:20.994Z,2.10
2022-08-25T17:26:27.920Z,2.15
2022-08-25T17:29:30.711Z,2.22
2022-08-25T17:32:32.881Z,2.30
2022-08-25T17:35:39.328Z,2.15
2022-08-25T17:38:41.959Z,2.17
2022-08-25T17:41:45.156Z,2.10
2022-08-25T17:44:47.314Z,2.30
2022-08-25T17:47:49.383Z,2.33
2022-08-25T17:50:53.323Z,2.25
2022-08-25T17:53:56.162Z,2.50
2022-08-25T17:56:58.077Z,2.15
2022-08-25T18:00:00.294Z,2.30
2022-08-25T18:03:10.399Z,2.47
2022-08-25T18:06:15.121Z,2.50
2022-08-25T18:09:18.437Z,2.80
2022-08-25T18:12:20.328Z,2.67
2022-08-25T18:15:22.908Z,2.65
2022-08-25T18:18:24.859Z,2.33
2022-08-25T18:21:30.411Z,2.45
2022-08-25T18:24:35.874Z,2.50
2022-08-25T18:27:38.148Z,2.80
2022-08-25T18:30:41.291Z,2.58
2022-08-25T18:33:44.937Z,2.40
2022-08-25T18:36:46.614Z,2.60
2022-08-25T18:40:07.477Z,2.50
2022-08-25T18:43:12.225Z,2.60
2022-08-25T18:46:13.928Z,2.65
2022-08-25T18:49:17.538Z,2.60
2022-08-25T18:52:19.294Z,2.78
2022-08-25T18:55:22.993Z,2.55
2022-08-25T18:58:26.636Z,2.58
2022-08-25T19:01:28.737Z,2.63
2022-08-25T19:04:32.040Z,2.38
2022-08-25T19:07:33.804Z,2.80
2022-08-25T19:10:36.069Z,2.58
2022-08-25T19:13:38.900Z,2.63
2022-08-25T19:16:43.589Z,2.40
2022-08-25T19:19:45.623Z,2.28
2022-08-25T19:22:47.984Z,2.22
2022-08-25T19:25:49.881Z,2.70
2022-08-25T19:28:52.738Z,2.20
2022-08-25T19:31:55.248Z,2.55
2022-08-25T19:34:57.164Z,2.60
2022-08-25T19:38:00.862Z,2.40
2022-08-25T19:41:10.458Z,2.65
2022-08-25T19:44:16.696Z,2.63
2022-08-25T19:47:18.929Z,2.50
2022-08-25T19:50:23.357Z,2.67
2022-08-25T19:53:25.773Z,2.60
2022-08-25T19:56:27.486Z,2.78
2022-08-25T19:59:40.775Z,2.60
2022-08-25T20:02:45.984Z,2.53
2022-08-25T20:05:49.089Z,2.78
2022-08-25T20:08:58.958Z,2.75
2022-08-25T20:12:02.488Z,2.72
2022-08-25T20:15:05.569Z,3.10
2022-08-25T20:18:07.879Z,2.85
2022-08-25T20:21:10.316Z,2.80
2022-08-25T20:24:30.786Z,2.90
2022-08-25T20:27:38.742Z,2.60
2022-08-25T20:30:44.077Z,2.90
2022-08-25T20:33:46.934Z,2.80
2022-08-25T20:36:50.660Z,2.80
2022-08-25T20:39:57.234Z,2.88
2022-08-25T20:43:05.134Z,2.58
2022-08-25T20:46:12.382Z,2.88
2022-08-25T20:49:15.404Z,2.75
2022-08-25T20:52:18.495Z,2.80
2022-08-25T20:55:23.430Z,2.63
2022-08-25T20:58:26.501Z,2.85
2022-08-25T21:01:44.836Z,2.60
2022-08-25T21:05:01.446Z,2.95
2022-08-25T21:08:03.457Z,2.92
2022-08-25T21:11:22.508Z,2.65
2022-08-25T21:14:26.276Z,2.83
2022-08-25T21:17:40.422Z,2.75
2022-08-25T21:20:42.094Z,2.65
2022-08-25T21:23:53.149Z,2.60
2022-08-25T21:26:56.470Z,2.80
2022-08-25T21:30:04.581Z,3.00
2022-08-25T21:33:10.692Z,2.90
2022-08-25T21:40:46.059Z,2.85
2022-08-25T21:43:53.893Z,2.70
2022-08-25T21:46:56.242Z,2.75
2022-08-25T21:49:58.018Z,2.65
2022-08-25T21:53:02.507Z,2.83
2022-08-25T21:56:29.312Z,3.20
2022-08-25T21:59:37.666Z,2.72
2022-08-25T22:02:39.578Z,2.70
2022-08-25T22:05:45.722Z,2.83
2022-08-25T22:09:10.090Z,2.92
2022-08-25T22:12:12.244Z,2.78
2022-08-25T22:15:21.428Z,2.95
2022-08-25T22:18:27.217Z,2.95
2022-08-25T22:21:33.554Z,3.05
2022-08-25T22:24:35.411Z,2.90
2022-08-25T22:27:38.544Z,3.00
2022-08-25T22:30:48.861Z,3.10
2022-08-25T22:34:03.625Z,3.00
2022-08-25T22:37:14.234Z,3.17
2022-08-25T22:40:45.724Z,3.05
2022-08-25T22:43:49.923Z,3.08
2022-08-25T22:47:09.239Z,2.70
2022-08-25T22:50:24.297Z,2.80
2022-08-25T22:53:46.574Z,3.00
2022-08-25T22:57:03.388Z,3.10
2022-08-25T23:00:11.064Z,2.80
2022-08-25T23:03:12.985Z,3.13
2022-08-25T23:06:24.753Z,2.45
2022-08-25T23:09:26.584Z,3.08
2022-08-25T23:12:32.600Z,2.83
2022-08-25T23:15:34.489Z,2.80
2022-08-25T23:18:46.595Z,3.05
2022-08-25T23:26:36.249Z,2.95
2022-08-25T23:29:51.320Z,3.20
2022-08-25T23:33:18.901Z,2.97
2022-08-25T23:36:21.988Z,2.90
2022-08-25T23:39:24.650Z,2.88
2022-08-25T23:42:35.453Z,2.90
2022-08-25T23:45:39.986Z,2.88
2022-08-25T23:48:42.939Z,3.10
2022-08-25T23:51:46.931Z,3.00
2022-08-25T23:54:48.770Z,3.00
2022-08-25T23:57:51.701Z,3.20
